createdAt,value
2023-05-23T00:02:30.285Z,16.96
2023-05-23T00:07:31.900Z,16.95
2023-05-23T00:12:33.808Z,16.95
2023-05-23T00:17:35.491Z,16.95
2023-05-23T00:22:37.076Z,16.98
2023-05-23T00:27:38.672Z,16.96
2023-05-23T00:32:39.954Z,17.02
2023-05-23T00:37:41.139Z,17.03
2023-05-23T00:42:42.588Z,17.04
2023-05-23T00:47:44.307Z,17
2023-05-23T00:52:46.020Z,16.91
2023-05-23T00:57:47.495Z,16.87
2023-05-23T01:02:49.157Z,16.77
2023-05-23T01:07:50.581Z,16.64
2023-05-23T01:12:52.143Z,16.54
2023-05-23T01:17:54.254Z,16.5
2023-05-23T01:22:56.241Z,16.52
2023-05-23T01:27:57.561Z,16.57
2023-05-23T01:32:59.190Z,16.57
2023-05-23T01:53:06.158Z,16.65
2023-05-23T02:23:17.557Z,16.84
2023-05-23T02:33:21.395Z,16.82
2023-05-23T04:13:55.402Z,16.95
2023-05-23T04:29:00.759Z,17.12
2023-05-23T04:34:02.777Z,17.15
2023-05-23T04:39:04.540Z,17.09
2023-05-23T04:44:06.388Z,17.04
2023-05-23T04:49:07.600Z,17.03
2023-05-23T04:54:09.632Z,17.07
2023-05-23T04:59:11.718Z,16.92
2023-05-23T05:04:13.196Z,16.79
2023-05-23T05:09:14.986Z,16.78
2023-05-23T05:14:16.724Z,16.66
2023-05-23T05:19:18.584Z,16.73
2023-05-23T05:24:19.792Z,16.79
2023-05-23T05:29:21.700Z,16.85
2023-05-23T05:34:23.758Z,16.81
2023-05-23T05:39:25.462Z,16.84
2023-05-23T05:44:27.230Z,16.81
2023-05-23T05:49:29.306Z,16.93
2023-05-23T05:54:31.020Z,16.96
2023-05-23T05:59:33.106Z,17.03
2023-05-23T06:04:34.378Z,17
2023-05-23T06:09:35.685Z,17.07
2023-05-23T06:14:37.260Z,17.24
2023-05-23T06:19:39.492Z,17.43
2023-05-23T06:24:41.467Z,17.52
2023-05-23T06:29:43.019Z,17.56
2023-05-23T06:34:45.050Z,17.56
2023-05-23T06:39:46.786Z,17.68
2023-05-23T06:44:48.278Z,17.79
2023-05-23T06:49:49.709Z,17.94
2023-05-23T06:54:51.297Z,18.07
2023-05-23T06:59:53.105Z,18.16
2023-05-23T07:04:54.889Z,18.09
2023-05-23T07:09:56.210Z,18.19
2023-05-23T07:14:57.377Z,18.24
2023-05-23T07:19:58.670Z,18.29
2023-05-23T07:25:00.808Z,18.41
2023-05-23T07:30:02.637Z,18.53
2023-05-23T07:35:04.058Z,18.66
2023-05-23T07:40:05.564Z,18.75
2023-05-23T07:45:07.288Z,18.86
2023-05-23T07:50:08.778Z,18.85
2023-05-23T07:55:10.973Z,18.78
2023-05-23T08:00:12.563Z,18.83
2023-05-23T08:05:14.657Z,18.76
2023-05-23T08:10:16.601Z,18.94
2023-05-23T08:15:18.492Z,19.01
2023-05-23T08:20:20.307Z,19.02
2023-05-23T08:25:22.298Z,19.08
2023-05-23T08:30:30.012Z,19.04
2023-05-23T08:35:31.416Z,19.1
2023-05-23T08:40:32.683Z,19.23
2023-05-23T08:45:34.058Z,19.42
2023-05-23T08:50:35.437Z,19.5
2023-05-23T08:55:36.735Z,19.56
2023-05-23T09:00:38.397Z,19.46
2023-05-23T09:05:39.629Z,19.33
2023-05-23T09:10:41.902Z,19.51
2023-05-23T09:15:43.376Z,19.5
2023-05-23T09:20:44.597Z,19.45
2023-05-23T09:25:46.794Z,19.53
2023-05-23T09:30:48.497Z,19.39
2023-05-23T09:35:50.130Z,19.48
2023-05-23T09:40:51.502Z,19.65
2023-05-23T09:45:52.859Z,20.06
2023-05-23T09:50:54.801Z,20.39
2023-05-23T09:55:56.588Z,20.65
2023-05-23T10:00:58.326Z,20.78
2023-05-23T10:06:00.064Z,20.91
2023-05-23T10:11:01.456Z,20.84
2023-05-23T10:16:03.357Z,20.86
2023-05-23T10:21:05.249Z,21.09
2023-05-23T10:26:07.076Z,20.96
2023-05-23T10:31:08.747Z,20.68
2023-05-23T10:36:10.884Z,20.82
2023-05-23T10:41:12.963Z,20.98
2023-05-23T10:46:14.240Z,21.17
2023-05-23T10:51:15.842Z,21.06
2023-05-23T10:56:17.358Z,21.06
2023-05-23T11:01:18.849Z,21.19
2023-05-23T11:06:20.370Z,21.4
2023-05-23T11:11:21.916Z,21.59
2023-05-23T11:16:23.958Z,21.73
2023-05-23T11:21:25.557Z,21.89
2023-05-23T11:26:27.171Z,21.7
2023-05-23T11:31:28.468Z,21.77
2023-05-23T11:36:30.376Z,21.88
2023-05-23T11:41:32.546Z,22.04
2023-05-23T11:46:34.692Z,22.34
2023-05-23T11:51:36.676Z,22.6
2023-05-23T11:56:38.384Z,22.89
2023-05-23T12:01:40.394Z,23.17
2023-05-23T12:06:42.130Z,23.26
2023-05-23T12:11:43.545Z,23.59
2023-05-23T12:16:45.755Z,24.18
2023-05-23T12:21:47.677Z,24.44
2023-05-23T12:26:49.343Z,24.59
2023-05-23T12:31:51.236Z,25.33
2023-05-23T12:36:57.397Z,25.01
2023-05-23T12:41:53.649Z,25.57
2023-05-23T12:46:55.223Z,26.15
2023-05-23T12:51:57.316Z,25.66
2023-05-23T12:56:59.065Z,25.63
2023-05-23T13:02:00.930Z,25.21
2023-05-23T13:07:02.990Z,24.47
2023-05-23T13:12:04.561Z,23.98
2023-05-23T13:17:06.114Z,23.09
2023-05-23T13:22:07.290Z,22.78
2023-05-23T13:27:08.894Z,22.98
2023-05-23T13:32:10.803Z,22.72
2023-05-23T13:37:12.155Z,22.28
2023-05-23T13:42:14.051Z,22.42
2023-05-23T13:47:15.295Z,24.05
2023-05-23T13:52:16.777Z,25.12
2023-05-23T13:57:18.113Z,26.36
2023-05-23T14:02:19.673Z,26.92
2023-05-23T14:07:21.577Z,26.55
2023-05-23T14:12:23.468Z,26.1
2023-05-23T14:17:25.225Z,25.93
2023-05-23T14:22:26.415Z,25.69
2023-05-23T14:27:28.424Z,24.9
2023-05-23T14:32:30.438Z,24.19
2023-05-23T14:37:32.416Z,23.89
2023-05-23T14:42:33.884Z,25.59
2023-05-23T14:47:35.804Z,25.42
2023-05-23T14:52:37.883Z,25.73
2023-05-23T14:57:39.268Z,25.21
2023-05-23T15:02:40.977Z,24.84
2023-05-23T15:07:42.741Z,24.64
2023-05-23T15:12:43.934Z,24.21
2023-05-23T15:17:45.328Z,23.68
2023-05-23T15:22:46.736Z,23.37
2023-05-23T15:27:48.409Z,23.1
2023-05-23T15:32:50.266Z,22.68
2023-05-23T15:37:52.157Z,22.41
2023-05-23T15:42:53.572Z,22.2
2023-05-23T15:47:55.666Z,21.85
2023-05-23T15:52:57.703Z,21.77
2023-05-23T15:57:59.641Z,21.64
2023-05-23T16:18:06.260Z,21.64
2023-05-23T16:28:09.592Z,22.26
2023-05-23T16:58:21.254Z,21.99
2023-05-23T18:48:59.548Z,18.96
2023-05-23T18:54:00.995Z,18.87
2023-05-23T18:59:03.109Z,18.76
2023-05-23T19:04:05.187Z,18.67
2023-05-23T19:09:06.844Z,18.54
2023-05-23T19:14:08.058Z,18.42
2023-05-23T19:19:09.423Z,18.27
2023-05-23T19:24:11.339Z,18.08
2023-05-23T19:29:12.821Z,17.95
2023-05-23T19:34:14.897Z,17.82
2023-05-23T19:39:16.277Z,17.74
2023-05-23T19:44:17.890Z,17.7
2023-05-23T19:49:19.928Z,17.62
2023-05-23T19:54:21.769Z,17.52
2023-05-23T19:59:23.266Z,17.37
2023-05-23T20:04:25.219Z,17.26
2023-05-23T20:09:27.146Z,17.11
2023-05-23T20:14:29.430Z,16.94
2023-05-23T20:19:30.701Z,16.77
2023-05-23T20:24:32.413Z,16.65
2023-05-23T20:29:33.607Z,16.53
2023-05-23T20:34:35.407Z,16.37
2023-05-23T20:39:37.473Z,16.21
2023-05-23T20:44:38.995Z,16.06
2023-05-23T20:49:40.966Z,15.93
2023-05-23T20:54:42.957Z,15.84
2023-05-23T20:59:44.969Z,15.79
2023-05-23T21:04:46.740Z,15.69
2023-05-23T21:09:48.288Z,15.53
2023-05-23T21:14:50.307Z,15.41
2023-05-23T21:19:51.903Z,15.2
2023-05-23T21:24:53.830Z,15.11
2023-05-23T21:29:55.448Z,15.02
2023-05-23T21:34:57.321Z,15
2023-05-23T21:39:59.326Z,14.97
2023-05-23T21:45:00.801Z,14.99
2023-05-23T21:50:02.285Z,15
2023-05-23T21:55:04.020Z,14.98
2023-05-23T22:00:05.831Z,14.98
2023-05-23T22:05:07.593Z,14.96
2023-05-23T22:10:09.320Z,14.92
2023-05-23T22:15:10.665Z,14.94
2023-05-23T22:20:12.385Z,14.92
2023-05-23T22:25:14.028Z,14.87
2023-05-23T22:30:15.332Z,14.83
2023-05-23T22:35:16.560Z,14.74
2023-05-23T22:40:17.766Z,14.71
2023-05-23T22:45:19.679Z,14.68
2023-05-23T22:50:20.915Z,14.6
2023-05-23T22:55:22.126Z,14.57
2023-05-23T23:00:23.881Z,14.53
2023-05-23T23:05:25.729Z,14.49
2023-05-23T23:10:27.224Z,14.45
2023-05-23T23:15:28.886Z,14.39
2023-05-23T23:20:30.640Z,14.32
2023-05-23T23:25:31.881Z,14.26
2023-05-23T23:30:33.971Z,14.17
2023-05-23T23:35:35.808Z,14.11
2023-05-23T23:40:37.298Z,14.01
2023-05-23T23:45:38.788Z,13.95
2023-05-23T23:50:40.259Z,13.9
2023-05-23T23:55:41.439Z,13.93
